createdAt,value
2023-08-30T00:01:06.645Z,4.60
2023-08-30T00:03:33.856Z,4.28
2023-08-30T00:06:04.843Z,4.65
2023-08-30T00:08:32.349Z,4.45
2023-08-30T00:10:59.823Z,4.22
2023-08-30T00:13:27.666Z,4.53
2023-08-30T00:15:54.880Z,4.85
2023-08-30T00:18:22.546Z,4.40
2023-08-30T00:20:49.595Z,4.57
2023-08-30T00:23:17.806Z,5.40
2023-08-30T00:25:44.894Z,7.00
2023-08-30T00:28:12.298Z,6.97
2023-08-30T00:30:39.732Z,7.63
2023-08-30T00:33:06.924Z,8.18
2023-08-30T00:35:34.052Z,7.60
2023-08-30T00:38:01.274Z,6.03
2023-08-30T00:40:28.446Z,5.38
2023-08-30T00:42:55.558Z,6.93
2023-08-30T00:45:22.627Z,6.40
2023-08-30T00:47:49.722Z,6.35
2023-08-30T00:50:17.632Z,7.43
2023-08-30T00:52:44.672Z,7.07
2023-08-30T00:55:11.777Z,6.40
2023-08-30T00:57:39.038Z,5.63
2023-08-30T01:00:07.269Z,5.70
2023-08-30T01:02:34.702Z,5.90
2023-08-30T01:05:01.917Z,6.03
2023-08-30T01:07:29.010Z,6.53
2023-08-30T01:09:56.137Z,6.70
2023-08-30T01:12:28.624Z,6.75
2023-08-30T01:15:12.295Z,7.05
2023-08-30T01:17:40.446Z,7.22
2023-08-30T01:20:17.341Z,6.65
2023-08-30T01:22:56.600Z,7.78
2023-08-30T01:25:23.678Z,7.78
2023-08-30T01:27:50.830Z,7.50
2023-08-30T01:30:18.366Z,7.43
2023-08-30T01:32:45.576Z,6.82
2023-08-30T01:35:18.029Z,7.68
2023-08-30T01:37:48.146Z,7.85
2023-08-30T01:40:15.230Z,9.00
2023-08-30T01:42:42.327Z,7.85
2023-08-30T01:45:10.232Z,8.95
2023-08-30T01:47:37.365Z,8.55
2023-08-30T01:50:04.933Z,8.10
2023-08-30T01:52:32.038Z,9.30
2023-08-30T01:54:59.163Z,9.07
2023-08-30T01:57:26.277Z,8.93
2023-08-30T01:59:53.542Z,9.25
2023-08-30T02:02:20.617Z,7.95
2023-08-30T02:04:47.812Z,7.97
2023-08-30T02:07:25.063Z,8.20
2023-08-30T02:09:56.427Z,8.05
2023-08-30T02:12:23.544Z,8.98
2023-08-30T02:14:50.645Z,7.72
2023-08-30T02:17:17.857Z,8.15
2023-08-30T02:19:45.103Z,8.93
2023-08-30T02:22:12.239Z,8.52
2023-08-30T02:24:39.356Z,8.35
2023-08-30T02:27:06.690Z,8.85
2023-08-30T02:29:33.803Z,9.07
2023-08-30T02:32:00.969Z,8.60
2023-08-30T02:34:28.028Z,8.07
2023-08-30T02:36:55.232Z,8.80
2023-08-30T02:39:22.324Z,9.65
2023-08-30T02:41:49.391Z,9.95
2023-08-30T02:44:16.563Z,9.82
2023-08-30T02:46:43.742Z,10.07
2023-08-30T02:49:12.337Z,10.10
2023-08-30T02:51:39.419Z,10.40
2023-08-30T02:54:06.620Z,10.50
2023-08-30T02:56:33.881Z,9.85
2023-08-30T02:59:01.027Z,10.55
2023-08-30T03:01:28.168Z,10.65
2023-08-30T03:03:55.357Z,10.70
2023-08-30T03:06:22.457Z,9.98
2023-08-30T03:08:49.608Z,10.80
2023-08-30T03:11:16.707Z,11.13
2023-08-30T03:13:43.919Z,10.65
2023-08-30T03:16:14.505Z,11.13
2023-08-30T03:18:41.849Z,10.57
2023-08-30T03:21:09.025Z,11.70
2023-08-30T03:23:36.738Z,11.63
2023-08-30T03:26:10.735Z,11.80
2023-08-30T03:28:37.994Z,11.75
2023-08-30T03:31:13.186Z,11.43
2023-08-30T03:33:45.164Z,10.90
2023-08-30T03:36:12.978Z,10.25
2023-08-30T03:38:40.608Z,9.55
2023-08-30T03:41:08.032Z,9.32
2023-08-30T03:43:35.203Z,8.80
2023-08-30T03:46:02.450Z,8.73
2023-08-30T03:48:29.646Z,8.35
2023-08-30T03:50:56.757Z,8.98
2023-08-30T03:53:24.055Z,9.98
2023-08-30T03:55:51.140Z,10.20
2023-08-30T03:58:19.320Z,9.65
2023-08-30T04:00:46.634Z,10.40
2023-08-30T04:03:14.588Z,9.40
2023-08-30T04:05:41.755Z,9.57
2023-08-30T04:08:09.212Z,10.25
2023-08-30T04:10:36.961Z,10.27
2023-08-30T04:13:04.520Z,9.63
2023-08-30T04:15:34.388Z,9.35
2023-08-30T04:18:01.515Z,10.07
2023-08-30T04:20:28.657Z,9.90
2023-08-30T04:22:57.600Z,9.95
2023-08-30T04:25:26.067Z,8.73
2023-08-30T04:27:53.339Z,10.15
2023-08-30T04:30:20.479Z,9.20
2023-08-30T04:32:47.936Z,9.85
2023-08-30T04:35:15.006Z,9.90
2023-08-30T04:37:43.786Z,9.55
2023-08-30T04:40:11.096Z,9.63
2023-08-30T04:42:38.780Z,9.90
2023-08-30T04:45:08.570Z,10.15
2023-08-30T04:47:35.877Z,9.57
2023-08-30T04:50:03.162Z,8.90
2023-08-30T04:52:30.258Z,8.70
2023-08-30T04:54:57.309Z,9.60
2023-08-30T04:57:24.541Z,8.57
2023-08-30T04:59:51.631Z,8.82
2023-08-30T05:02:18.758Z,8.20
2023-08-30T05:04:46.068Z,8.68
2023-08-30T05:07:14.045Z,8.60
2023-08-30T05:09:41.706Z,9.38
2023-08-30T05:12:09.283Z,8.95
2023-08-30T05:14:36.421Z,9.23
2023-08-30T05:17:04.509Z,9.38
2023-08-30T05:19:31.591Z,9.48
2023-08-30T05:21:58.655Z,9.15
2023-08-30T05:24:27.399Z,8.95
2023-08-30T05:26:54.624Z,12.40
2023-08-30T05:29:21.664Z,13.40
2023-08-30T05:31:48.708Z,13.63
2023-08-30T05:34:15.855Z,12.90
2023-08-30T05:36:42.960Z,15.82
2023-08-30T05:39:10.049Z,16.75
2023-08-30T05:41:37.177Z,15.70
2023-08-30T05:44:04.404Z,15.45
2023-08-30T05:46:31.484Z,15.63
2023-08-30T05:48:58.592Z,17.38
2023-08-30T05:51:25.663Z,18.27
2023-08-30T05:53:52.755Z,17.95
2023-08-30T05:56:19.843Z,17.67
2023-08-30T05:58:46.919Z,17.58
2023-08-30T06:01:15.389Z,19.92
2023-08-30T06:03:42.564Z,19.38
2023-08-30T06:06:09.670Z,20.02
2023-08-30T06:08:36.733Z,20.65
2023-08-30T06:11:03.793Z,21.05
2023-08-30T06:13:30.956Z,21.05
2023-08-30T06:15:58.147Z,20.77
2023-08-30T06:18:25.311Z,20.77
2023-08-30T06:20:52.432Z,21.52
2023-08-30T06:23:20.528Z,20.88
2023-08-30T06:25:54.852Z,21.15
2023-08-30T06:28:21.949Z,20.65
2023-08-30T06:30:49.068Z,21.35
2023-08-30T06:33:16.124Z,22.35
2023-08-30T06:35:43.578Z,22.58
2023-08-30T06:38:11.089Z,21.80
2023-08-30T06:40:38.777Z,21.00
2023-08-30T06:43:05.895Z,21.00
2023-08-30T06:45:32.977Z,20.38
2023-08-30T06:48:00.198Z,20.40
2023-08-30T06:50:27.391Z,20.88
2023-08-30T06:52:54.518Z,19.75
2023-08-30T06:55:21.628Z,19.52
2023-08-30T06:57:49.087Z,22.00
2023-08-30T07:00:16.295Z,21.63
2023-08-30T07:02:46.707Z,19.25
2023-08-30T07:07:40.912Z,19.00
2023-08-30T07:10:08.118Z,19.52
2023-08-30T07:12:35.243Z,18.08
2023-08-30T07:15:02.326Z,19.70
2023-08-30T07:17:36.978Z,19.10
2023-08-30T07:20:14.421Z,18.90
2023-08-30T07:22:41.543Z,20.27
2023-08-30T07:25:11.234Z,18.30
2023-08-30T07:27:38.401Z,20.60
2023-08-30T07:30:05.959Z,19.63
2023-08-30T07:32:33.116Z,21.75
2023-08-30T07:35:00.240Z,21.33
2023-08-30T07:37:27.308Z,21.73
2023-08-30T07:39:54.507Z,22.60
2023-08-30T07:42:21.650Z,21.98
2023-08-30T07:44:48.712Z,21.45
2023-08-30T07:47:15.836Z,20.85
2023-08-30T07:49:43.266Z,21.75
2023-08-30T07:52:11.997Z,20.58
2023-08-30T07:54:42.480Z,21.38
2023-08-30T07:57:09.933Z,21.88
2023-08-30T07:59:37.298Z,21.60
2023-08-30T08:02:07.716Z,21.60
2023-08-30T08:04:38.148Z,19.45
2023-08-30T08:07:06.036Z,19.08
2023-08-30T08:09:33.451Z,19.45
2023-08-30T08:12:00.519Z,18.40
2023-08-30T08:14:27.925Z,19.17
2023-08-30T08:16:55.140Z,17.45
2023-08-30T08:19:25.824Z,16.98
2023-08-30T08:21:54.849Z,16.40
2023-08-30T08:24:22.299Z,16.13
2023-08-30T08:26:49.535Z,15.27
2023-08-30T08:29:16.630Z,15.80
2023-08-30T08:31:43.703Z,15.98
2023-08-30T08:34:11.649Z,15.50
2023-08-30T08:36:39.359Z,15.68
2023-08-30T08:39:06.962Z,15.80
2023-08-30T08:41:37.867Z,14.63
2023-08-30T08:44:05.848Z,15.90
2023-08-30T08:46:32.902Z,16.10
2023-08-30T08:48:59.979Z,14.45
2023-08-30T08:51:27.504Z,15.70
2023-08-30T08:53:54.633Z,13.85
2023-08-30T08:56:21.687Z,14.23
2023-08-30T08:58:48.742Z,13.75
2023-08-30T09:01:29.225Z,12.95
2023-08-30T09:04:00.632Z,13.93
2023-08-30T09:06:27.714Z,14.10
2023-08-30T09:08:54.767Z,14.05
2023-08-30T09:11:25.641Z,14.07
2023-08-30T09:14:00.341Z,12.68
2023-08-30T09:16:27.467Z,12.15
2023-08-30T09:19:10.271Z,13.27
2023-08-30T09:21:37.864Z,12.68
2023-08-30T09:24:08.640Z,12.43
2023-08-30T09:26:37.733Z,12.38
2023-08-30T09:29:08.221Z,11.85
2023-08-30T09:31:38.779Z,12.13
2023-08-30T09:34:06.104Z,11.65
2023-08-30T09:36:36.650Z,9.48
2023-08-30T09:39:07.540Z,10.45
2023-08-30T09:41:34.624Z,9.40
2023-08-30T09:44:13.675Z,9.85
2023-08-30T09:49:20.353Z,8.88
2023-08-30T09:51:47.490Z,9.00
2023-08-30T09:54:32.078Z,8.73
2023-08-30T09:57:05.639Z,8.10
2023-08-30T09:59:32.691Z,8.20
2023-08-30T10:02:01.336Z,7.22
2023-08-30T10:04:28.792Z,6.47
2023-08-30T10:06:56.464Z,5.22
2023-08-30T10:09:23.624Z,4.88
2023-08-30T10:11:50.638Z,5.25
2023-08-30T10:14:17.743Z,4.28
2023-08-30T10:16:48.733Z,4.18
2023-08-30T10:19:19.417Z,3.88
2023-08-30T10:21:46.524Z,4.10
2023-08-30T10:24:26.323Z,3.53
2023-08-30T10:26:53.890Z,3.33
2023-08-30T10:29:21.030Z,3.70
2023-08-30T10:31:48.145Z,3.60
2023-08-30T10:34:17.974Z,3.40
2023-08-30T10:36:45.496Z,3.28
2023-08-30T10:39:13.159Z,3.38
2023-08-30T10:41:40.820Z,3.08
2023-08-30T10:44:08.168Z,3.17
2023-08-30T10:46:37.272Z,3.45
2023-08-30T10:49:11.416Z,3.03
2023-08-30T10:51:41.670Z,3.13
2023-08-30T10:54:26.896Z,2.97
2023-08-30T10:56:53.945Z,2.90
2023-08-30T10:59:21.270Z,3.10
2023-08-30T11:01:48.812Z,2.67
2023-08-30T11:04:16.538Z,2.78
2023-08-30T11:06:50.392Z,2.70
2023-08-30T11:09:21.283Z,2.90
2023-08-30T11:11:48.487Z,2.90
2023-08-30T11:14:15.639Z,3.00
2023-08-30T11:16:42.740Z,2.88
2023-08-30T11:19:10.408Z,2.63
2023-08-30T11:21:41.150Z,2.67
2023-08-30T11:24:08.547Z,2.40
2023-08-30T11:26:35.716Z,3.00
2023-08-30T11:29:09.050Z,2.65
2023-08-30T11:31:36.299Z,2.60
2023-08-30T11:34:03.515Z,2.55
2023-08-30T11:36:31.222Z,2.90
2023-08-30T11:38:58.623Z,3.08
2023-08-30T11:41:26.007Z,2.85
2023-08-30T11:43:53.463Z,3.25
2023-08-30T11:46:20.648Z,3.20
2023-08-30T11:48:47.840Z,2.92
2023-08-30T11:51:15.169Z,3.00
2023-08-30T11:53:43.691Z,3.03
2023-08-30T11:56:11.091Z,2.75
2023-08-30T11:58:38.177Z,2.60
2023-08-30T12:01:05.738Z,2.75
2023-08-30T12:03:33.059Z,2.30
2023-08-30T12:06:00.336Z,2.60
2023-08-30T12:08:27.993Z,2.50
2023-08-30T12:10:56.645Z,2.53
2023-08-30T12:13:24.764Z,2.35
2023-08-30T12:15:55.229Z,2.28
2023-08-30T12:18:29.628Z,2.47
2023-08-30T12:20:57.465Z,2.25
2023-08-30T12:23:24.991Z,1.92
2023-08-30T12:26:02.110Z,2.33
2023-08-30T12:28:29.634Z,2.47
2023-08-30T12:30:56.884Z,2.25
2023-08-30T12:33:24.115Z,2.20
2023-08-30T12:35:51.233Z,2.50
2023-08-30T12:38:21.402Z,2.05
2023-08-30T12:40:48.903Z,2.20
2023-08-30T12:43:16.085Z,2.53
2023-08-30T12:45:43.249Z,2.10
2023-08-30T12:48:10.918Z,2.50
2023-08-30T12:50:38.149Z,2.28
2023-08-30T12:53:05.524Z,2.28
2023-08-30T12:55:32.632Z,2.10
2023-08-30T12:57:59.774Z,2.15
2023-08-30T13:00:26.984Z,2.47
2023-08-30T13:02:54.262Z,2.40
2023-08-30T13:05:22.352Z,2.10
2023-08-30T13:07:49.685Z,2.47
2023-08-30T13:10:17.765Z,2.10
2023-08-30T13:12:44.917Z,2.30
2023-08-30T13:15:12.683Z,1.80
2023-08-30T13:17:39.887Z,2.35
2023-08-30T13:20:07.368Z,2.13
2023-08-30T13:22:34.541Z,2.00
2023-08-30T13:25:03.741Z,2.42
2023-08-30T13:27:31.417Z,2.53
2023-08-30T13:29:58.659Z,2.30
2023-08-30T13:32:25.820Z,2.15
2023-08-30T13:34:53.077Z,2.22
2023-08-30T13:37:20.241Z,2.35
2023-08-30T13:39:47.322Z,2.50
2023-08-30T13:42:14.481Z,2.40
2023-08-30T13:44:43.488Z,2.30
2023-08-30T13:47:10.590Z,2.45
2023-08-30T13:49:38.486Z,2.22
2023-08-30T13:52:05.728Z,2.10
2023-08-30T13:54:32.945Z,2.60
2023-08-30T13:57:00.189Z,2.22
2023-08-30T13:59:29.517Z,2.40
2023-08-30T14:01:58.483Z,2.70
2023-08-30T14:04:26.950Z,2.40
2023-08-30T14:06:54.190Z,2.67
2023-08-30T14:09:22.820Z,2.20
2023-08-30T14:11:49.990Z,2.40
2023-08-30T14:14:17.078Z,2.72
2023-08-30T14:16:44.238Z,3.03
2023-08-30T14:19:11.971Z,2.63
2023-08-30T14:21:39.127Z,3.03
2023-08-30T14:24:06.457Z,3.10
2023-08-30T14:26:33.685Z,3.42
2023-08-30T14:29:00.904Z,3.97
2023-08-30T14:31:28.573Z,3.13
2023-08-30T14:33:57.195Z,3.63
2023-08-30T14:36:24.504Z,3.10
2023-08-30T14:38:51.702Z,3.17
2023-08-30T14:41:21.799Z,3.30
2023-08-30T14:43:48.947Z,3.35
2023-08-30T14:46:23.263Z,3.53
2023-08-30T14:48:51.540Z,3.30
2023-08-30T14:51:18.752Z,2.75
2023-08-30T14:53:45.893Z,2.97
2023-08-30T14:56:13.084Z,2.90
2023-08-30T14:58:40.797Z,3.33
2023-08-30T15:01:09.053Z,3.85
2023-08-30T15:03:39.329Z,3.30
2023-08-30T15:06:06.505Z,3.40
2023-08-30T15:08:33.608Z,3.17
2023-08-30T15:11:00.837Z,2.72
2023-08-30T15:13:28.130Z,3.50
2023-08-30T15:15:55.731Z,3.30
2023-08-30T15:18:22.967Z,3.03
2023-08-30T15:20:53.394Z,3.10
2023-08-30T15:23:20.567Z,2.97
2023-08-30T15:25:47.862Z,3.05
2023-08-30T15:28:15.310Z,2.90
2023-08-30T15:30:45.810Z,3.05
2023-08-30T15:33:13.983Z,3.28
2023-08-30T15:35:43.406Z,3.22
2023-08-30T15:38:10.567Z,3.13
2023-08-30T15:43:09.980Z,2.92
2023-08-30T15:45:37.637Z,3.13
2023-08-30T15:48:05.152Z,3.05
2023-08-30T15:50:32.298Z,2.92
2023-08-30T15:52:59.440Z,3.42
2023-08-30T15:55:29.647Z,3.15
2023-08-30T15:57:56.821Z,3.25
2023-08-30T16:00:24.188Z,3.28
2023-08-30T16:02:53.786Z,3.70
2023-08-30T16:05:21.151Z,3.30
2023-08-30T16:07:48.260Z,3.22
2023-08-30T16:10:15.317Z,3.35
2023-08-30T16:12:42.489Z,3.05
2023-08-30T16:15:09.814Z,3.00
2023-08-30T16:17:37.043Z,3.03
2023-08-30T16:20:04.291Z,3.20
2023-08-30T16:22:32.651Z,2.97
2023-08-30T16:24:59.870Z,3.03
2023-08-30T16:27:27.080Z,3.00
2023-08-30T16:29:54.175Z,3.05
2023-08-30T16:32:21.344Z,3.00
2023-08-30T16:34:50.570Z,3.05
2023-08-30T16:37:18.207Z,3.27
2023-08-30T16:39:45.327Z,2.65
2023-08-30T16:42:12.467Z,2.45
2023-08-30T16:44:39.591Z,2.58
2023-08-30T16:47:06.784Z,2.70
2023-08-30T16:49:34.007Z,3.13
2023-08-30T16:52:01.108Z,2.88
2023-08-30T16:54:28.216Z,3.35
2023-08-30T16:56:55.326Z,3.63
2023-08-30T16:59:23.180Z,3.60
2023-08-30T17:01:51.181Z,3.80
2023-08-30T17:04:18.308Z,3.80
2023-08-30T17:06:45.433Z,4.25
2023-08-30T17:09:12.684Z,4.22
2023-08-30T17:11:39.817Z,4.85
2023-08-30T17:14:07.074Z,4.57
2023-08-30T17:16:34.331Z,4.20
2023-08-30T17:19:01.595Z,4.47
2023-08-30T17:21:28.833Z,4.05
2023-08-30T17:23:55.879Z,4.00
2023-08-30T17:26:23.741Z,4.00
2023-08-30T17:28:51.214Z,3.08
2023-08-30T17:31:24.046Z,2.55
2023-08-30T17:33:51.365Z,2.90
2023-08-30T17:36:18.447Z,3.03
2023-08-30T17:38:45.757Z,2.65
2023-08-30T17:41:13.102Z,3.33
2023-08-30T17:43:40.163Z,3.38
2023-08-30T17:46:07.903Z,2.70
2023-08-30T17:48:35.297Z,2.50
2023-08-30T17:51:03.989Z,2.30
2023-08-30T17:53:31.334Z,2.70
2023-08-30T17:55:58.698Z,2.42
2023-08-30T17:58:26.208Z,2.30
2023-08-30T18:00:54.554Z,2.50
2023-08-30T18:03:25.296Z,2.20
2023-08-30T18:05:52.749Z,2.25
2023-08-30T18:08:19.930Z,2.35
2023-08-30T18:10:47.118Z,2.17
2023-08-30T18:13:15.070Z,2.40
2023-08-30T18:15:42.638Z,2.38
2023-08-30T18:18:09.816Z,2.35
2023-08-30T18:20:36.964Z,2.25
2023-08-30T18:23:04.189Z,2.30
2023-08-30T18:25:31.338Z,2.42
2023-08-30T18:27:58.401Z,2.38
2023-08-30T18:30:25.482Z,2.28
2023-08-30T18:32:53.920Z,2.20
2023-08-30T18:35:21.139Z,2.35
2023-08-30T18:37:49.194Z,2.00
2023-08-30T18:40:16.371Z,2.17
2023-08-30T18:42:43.521Z,2.75
2023-08-30T18:45:10.964Z,2.50
2023-08-30T18:47:38.240Z,2.60
2023-08-30T18:50:05.540Z,2.65
2023-08-30T18:52:32.691Z,2.70
2023-08-30T18:54:59.833Z,2.38
2023-08-30T18:57:27.109Z,2.45
2023-08-30T18:59:54.320Z,2.58
2023-08-30T19:02:21.439Z,2.33
2023-08-30T19:04:48.710Z,2.88
2023-08-30T19:07:15.873Z,2.75
2023-08-30T19:09:45.826Z,2.80
2023-08-30T19:12:12.893Z,2.75
2023-08-30T19:14:40.070Z,3.30
2023-08-30T19:17:07.169Z,3.33
2023-08-30T19:19:34.644Z,3.50
2023-08-30T19:22:01.796Z,3.28
2023-08-30T19:24:29.002Z,3.40
2023-08-30T19:26:56.191Z,3.60
2023-08-30T19:29:23.382Z,3.95
2023-08-30T19:31:50.664Z,3.78
2023-08-30T19:34:17.771Z,4.22
2023-08-30T19:36:44.839Z,3.92
2023-08-30T19:39:14.039Z,4.43
2023-08-30T19:41:41.107Z,4.68
2023-08-30T19:44:08.249Z,5.55
2023-08-30T19:46:35.492Z,4.47
2023-08-30T19:49:02.830Z,4.82
2023-08-30T19:51:30.016Z,5.93
2023-08-30T19:53:57.521Z,4.45
2023-08-30T19:56:24.789Z,5.35
2023-08-30T19:58:51.842Z,4.68
2023-08-30T20:01:21.120Z,5.20
2023-08-30T20:03:48.396Z,5.13
2023-08-30T20:06:15.581Z,5.63
2023-08-30T20:08:42.685Z,5.80
2023-08-30T20:11:10.948Z,5.75
2023-08-30T20:13:38.139Z,5.32
2023-08-30T20:16:06.497Z,5.53
2023-08-30T20:18:34.089Z,5.85
2023-08-30T20:21:03.055Z,5.28
2023-08-30T20:23:30.143Z,4.93
2023-08-30T20:25:58.479Z,5.75
2023-08-30T20:28:26.153Z,5.20
2023-08-30T20:30:53.542Z,5.43
2023-08-30T20:33:22.786Z,5.25
2023-08-30T20:35:49.965Z,5.20
2023-08-30T20:38:17.891Z,6.18
2023-08-30T20:40:45.396Z,5.70
2023-08-30T20:43:12.616Z,7.40
2023-08-30T20:45:39.750Z,6.70
2023-08-30T20:48:07.249Z,7.05
2023-08-30T20:50:34.930Z,6.95
2023-08-30T20:53:04.764Z,7.13
2023-08-30T20:55:39.937Z,6.63
2023-08-30T20:58:07.941Z,7.35
2023-08-30T21:00:35.120Z,6.95
2023-08-30T21:03:05.514Z,6.53
2023-08-30T21:08:00.207Z,10.05
2023-08-30T21:10:28.029Z,8.30
2023-08-30T21:15:25.518Z,8.07
2023-08-30T21:17:52.685Z,7.78
2023-08-30T21:20:19.845Z,7.57
2023-08-30T21:22:47.002Z,7.70
2023-08-30T21:25:14.417Z,7.93
2023-08-30T21:27:41.530Z,7.28
2023-08-30T21:30:08.873Z,7.00
2023-08-30T21:32:36.015Z,7.20
2023-08-30T21:35:04.486Z,6.50
2023-08-30T21:37:31.609Z,6.70
2023-08-30T21:39:58.759Z,6.75
2023-08-30T21:42:28.818Z,7.38
2023-08-30T21:44:55.950Z,7.50
2023-08-30T21:47:23.051Z,8.05
2023-08-30T21:49:50.414Z,9.02
2023-08-30T21:52:18.648Z,8.52
2023-08-30T21:54:45.733Z,9.50
2023-08-30T21:57:12.827Z,10.30
2023-08-30T21:59:39.933Z,10.85
2023-08-30T22:02:07.039Z,10.30
2023-08-30T22:04:34.377Z,10.55
2023-08-30T22:07:07.077Z,10.10
2023-08-30T22:09:34.907Z,9.77
2023-08-30T22:12:02.286Z,9.95
2023-08-30T22:14:33.513Z,9.77
2023-08-30T22:17:03.935Z,10.05
2023-08-30T22:19:31.256Z,10.43
2023-08-30T22:21:58.673Z,9.85
2023-08-30T22:24:25.762Z,10.55
2023-08-30T22:26:52.821Z,10.60
2023-08-30T22:29:21.852Z,11.80
2023-08-30T22:31:48.963Z,11.57
2023-08-30T22:34:16.025Z,10.45
2023-08-30T22:36:43.134Z,10.65
2023-08-30T22:39:10.396Z,9.63
2023-08-30T22:41:38.243Z,10.20
2023-08-30T22:44:05.519Z,11.07
2023-08-30T22:46:37.903Z,10.27
2023-08-30T22:49:05.471Z,11.05
2023-08-30T22:51:40.690Z,11.18
2023-08-30T22:54:16.748Z,10.18
2023-08-30T22:56:44.096Z,10.98
2023-08-30T22:59:11.198Z,11.27
2023-08-30T23:01:38.975Z,10.98
2023-08-30T23:04:06.376Z,10.60
2023-08-30T23:06:33.515Z,10.77
2023-08-30T23:09:00.716Z,10.82
2023-08-30T23:11:27.836Z,10.98
2023-08-30T23:13:54.894Z,11.75
2023-08-30T23:16:22.057Z,11.38
2023-08-30T23:18:50.844Z,11.90
2023-08-30T23:21:17.940Z,10.95
2023-08-30T23:23:45.193Z,12.18
2023-08-30T23:26:12.264Z,12.02
2023-08-30T23:28:39.402Z,12.65
2023-08-30T23:31:07.252Z,13.02
2023-08-30T23:33:34.431Z,12.20
2023-08-30T23:36:02.937Z,12.60
2023-08-30T23:38:30.107Z,13.82
2023-08-30T23:40:57.172Z,12.80
2023-08-30T23:43:24.284Z,12.68
2023-08-30T23:45:53.034Z,12.02
2023-08-30T23:48:20.421Z,10.70
2023-08-30T23:50:48.502Z,10.15
2023-08-30T23:53:16.049Z,10.05
2023-08-30T23:55:48.207Z,10.18
2023-08-30T23:58:15.576Z,9.95
